createdAt,value
2023-01-23T00:02:06.401Z,6.90
2023-01-23T00:07:07.810Z,7.13
2023-01-23T00:12:09.223Z,6.40
2023-01-23T00:17:10.563Z,7.40
2023-01-23T00:22:14.411Z,6.85
2023-01-23T00:27:15.789Z,7.20
2023-01-23T00:32:17.174Z,6.68
2023-01-23T00:37:18.458Z,6.45
2023-01-23T00:42:19.988Z,6.70
2023-01-23T00:47:21.300Z,6.90
2023-01-23T00:52:22.745Z,7.32
2023-01-23T00:57:24.133Z,6.85
2023-01-23T01:02:25.649Z,7.20
2023-01-23T01:07:27.068Z,6.57
2023-01-23T01:12:28.489Z,6.68
2023-01-23T01:17:29.820Z,6.78
2023-01-23T01:22:31.190Z,7.05
2023-01-23T01:27:32.615Z,7.50
2023-01-23T01:32:37.589Z,7.28
2023-01-23T01:37:40.286Z,8.07
2023-01-23T01:42:48.363Z,7.55
2023-01-23T01:47:49.688Z,7.63
2023-01-23T01:52:51.181Z,7.20
2023-01-23T01:57:54.325Z,7.03
2023-01-23T02:02:58.853Z,6.82
2023-01-23T02:08:06.744Z,7.80
2023-01-23T02:13:30.476Z,8.02
2023-01-23T02:18:34.497Z,8.02
2023-01-23T02:24:03.103Z,7.72
2023-01-23T02:29:05.981Z,8.70
2023-01-23T02:34:12.083Z,7.82
2023-01-23T02:39:16.335Z,8.85
2023-01-23T02:44:25.347Z,8.83
2023-01-23T02:49:27.814Z,8.27
2023-01-23T02:54:29.220Z,8.77
2023-01-23T02:59:49.359Z,8.85
2023-01-23T03:04:50.734Z,8.32
2023-01-23T03:09:52.086Z,7.90
2023-01-23T03:14:54.902Z,8.75
2023-01-23T03:19:57.585Z,8.02
2023-01-23T03:24:58.972Z,8.85
2023-01-23T03:30:21.666Z,8.07
2023-01-23T03:35:23.358Z,8.57
2023-01-23T03:40:43.896Z,8.85
2023-01-23T03:45:45.330Z,7.35
2023-01-23T03:50:46.682Z,7.78
2023-01-23T03:55:48.132Z,7.38
2023-01-23T04:00:49.470Z,7.40
2023-01-23T04:05:55.826Z,8.57
2023-01-23T04:11:05.310Z,7.80
2023-01-23T04:16:07.211Z,8.35
2023-01-23T04:21:08.855Z,7.30
2023-01-23T04:26:10.246Z,7.68
2023-01-23T04:31:11.680Z,7.68
2023-01-23T04:36:13.416Z,7.80
2023-01-23T04:41:20.515Z,7.18
2023-01-23T04:46:21.868Z,7.80
2023-01-23T04:51:23.745Z,6.95
2023-01-23T04:56:25.226Z,7.75
2023-01-23T05:01:26.647Z,7.50
2023-01-23T05:06:28.135Z,7.28
2023-01-23T05:11:30.257Z,6.38
2023-01-23T05:16:31.642Z,7.72
2023-01-23T05:21:32.964Z,6.90
2023-01-23T05:26:35.054Z,7.05
2023-01-23T05:31:36.682Z,6.10
2023-01-23T05:36:38.078Z,6.28
2023-01-23T05:41:39.404Z,6.38
2023-01-23T05:46:40.781Z,6.38
2023-01-23T05:51:42.163Z,5.93
2023-01-23T05:56:43.527Z,5.90
2023-01-23T06:01:44.889Z,5.47
2023-01-23T06:06:46.685Z,5.75
2023-01-23T06:11:48.084Z,5.35
2023-01-23T06:16:49.404Z,5.30
2023-01-23T06:21:51.387Z,5.22
2023-01-23T06:26:52.739Z,6.45
2023-01-23T06:31:54.210Z,5.03
2023-01-23T06:36:55.562Z,5.65
2023-01-23T06:41:57.518Z,5.63
2023-01-23T06:46:58.947Z,5.38
2023-01-23T06:52:00.281Z,5.68
2023-01-23T06:57:01.593Z,4.93
2023-01-23T07:02:02.957Z,6.45
2023-01-23T07:07:04.549Z,5.50
2023-01-23T07:12:06.610Z,4.70
2023-01-23T07:17:07.999Z,4.78
2023-01-23T07:22:09.340Z,7.93
2023-01-23T07:27:10.971Z,9.80
2023-01-23T07:32:12.551Z,5.22
2023-01-23T07:37:13.918Z,5.53
2023-01-23T07:42:15.414Z,5.32
2023-01-23T07:47:16.962Z,9.02
2023-01-23T07:52:18.495Z,5.97
2023-01-23T07:57:20.196Z,6.03
2023-01-23T08:02:21.634Z,7.03
2023-01-23T08:07:23.942Z,5.47
2023-01-23T08:12:25.348Z,5.53
2023-01-23T08:17:26.708Z,5.13
2023-01-23T08:22:28.153Z,4.72
2023-01-23T08:27:29.477Z,4.70
2023-01-23T08:32:30.881Z,5.05
2023-01-23T08:37:34.542Z,5.60
2023-01-23T08:42:36.352Z,5.18
2023-01-23T08:47:38.355Z,5.03
2023-01-23T08:52:39.959Z,5.00
2023-01-23T08:57:41.301Z,5.18
2023-01-23T09:02:42.691Z,5.97
2023-01-23T09:07:44.104Z,6.03
2023-01-23T09:12:45.557Z,5.55
2023-01-23T09:17:47.061Z,6.35
2023-01-23T09:22:48.711Z,6.38
2023-01-23T09:27:50.340Z,5.10
2023-01-23T09:32:53.672Z,6.68
2023-01-23T09:38:00.791Z,5.18
2023-01-23T09:43:10.974Z,5.65
2023-01-23T09:48:21.218Z,6.35
2023-01-23T09:53:26.869Z,5.82
2023-01-23T09:58:34.955Z,5.72
2023-01-23T10:03:39.866Z,5.47
2023-01-23T10:14:17.150Z,5.15
2023-01-23T10:19:55.629Z,5.93
2023-01-23T10:24:58.386Z,5.88
2023-01-23T10:30:17.171Z,5.30
2023-01-23T10:36:01.666Z,5.57
2023-01-23T10:41:15.042Z,5.95
2023-01-23T10:46:19.538Z,5.80
2023-01-23T10:51:27.055Z,5.82
2023-01-23T10:56:28.847Z,5.25
2023-01-23T11:01:36.505Z,5.40
2023-01-23T11:06:38.842Z,5.97
2023-01-23T11:11:40.269Z,5.00
2023-01-23T11:16:41.652Z,4.75
2023-01-23T11:21:55.660Z,4.82
2023-01-23T11:27:20.324Z,4.43
2023-01-23T11:32:23.775Z,3.90
2023-01-23T11:37:34.828Z,4.40
2023-01-23T11:42:40.065Z,4.20
2023-01-23T11:48:00.134Z,3.65
2023-01-23T11:53:08.745Z,3.63
2023-01-23T11:58:19.620Z,4.10
2023-01-23T12:03:34.256Z,5.53
2023-01-23T12:08:41.744Z,3.92
2023-01-23T12:14:10.005Z,4.15
2023-01-23T12:19:29.900Z,4.07
2023-01-23T12:24:43.347Z,3.92
2023-01-23T12:29:47.803Z,4.90
2023-01-23T12:35:14.532Z,3.75
2023-01-23T12:40:24.760Z,3.97
2023-01-23T12:45:28.720Z,3.97
2023-01-23T12:50:42.858Z,4.78
2023-01-23T12:56:23.184Z,4.57
2023-01-23T13:02:00.589Z,4.10
2023-01-23T13:07:24.292Z,4.85
2023-01-23T13:12:28.175Z,4.35
2023-01-23T13:17:38.968Z,4.40
2023-01-23T13:22:40.310Z,3.80
2023-01-23T13:27:52.844Z,4.35
2023-01-23T13:32:57.692Z,3.92
2023-01-23T13:37:59.321Z,4.50
2023-01-23T13:43:39.702Z,3.20
2023-01-23T14:26:48.799Z,4.97
2023-01-23T14:31:53.475Z,4.57
2023-01-23T14:37:11.896Z,3.80
2023-01-23T14:42:25.401Z,4.43
2023-01-23T14:47:34.332Z,5.85
2023-01-23T14:52:36.266Z,7.03
2023-01-23T14:57:39.003Z,5.35
2023-01-23T15:02:40.545Z,6.10
2023-01-23T15:08:20.261Z,6.10
2023-01-23T15:13:30.632Z,5.75
2023-01-23T15:18:34.899Z,5.80
2023-01-23T15:23:38.308Z,5.85
2023-01-23T15:28:48.169Z,5.82
2023-01-23T15:33:49.916Z,5.72
2023-01-23T15:38:52.045Z,5.75
2023-01-23T15:43:53.526Z,5.53
2023-01-23T15:48:55.352Z,6.20
2023-01-23T15:53:56.964Z,5.88
2023-01-23T15:59:00.640Z,6.40
2023-01-23T16:04:02.069Z,6.35
2023-01-23T16:09:05.924Z,6.00
2023-01-23T16:14:14.841Z,6.07
2023-01-23T16:19:16.378Z,6.55
2023-01-23T16:24:21.335Z,6.32
2023-01-23T16:34:31.796Z,6.55
2023-01-23T16:39:33.985Z,6.55
2023-01-23T16:44:35.377Z,6.90
2023-01-23T16:49:51.015Z,7.45
2023-01-23T16:54:54.615Z,7.15
2023-01-23T16:59:56.483Z,8.18
2023-01-23T17:04:57.944Z,7.85
2023-01-23T17:09:59.523Z,9.68
2023-01-23T17:15:02.443Z,7.45
2023-01-23T17:20:05.833Z,8.02
2023-01-23T17:25:19.644Z,8.02
2023-01-23T17:30:25.267Z,8.52
2023-01-23T17:35:36.196Z,8.55
2023-01-23T17:40:37.973Z,9.45
2023-01-23T17:45:41.237Z,9.75
2023-01-23T17:50:46.381Z,9.27
2023-01-23T18:00:53.876Z,14.23
2023-01-23T18:05:55.242Z,9.07
2023-01-23T18:10:58.844Z,9.02
2023-01-23T18:16:11.216Z,9.05
2023-01-23T18:21:15.368Z,8.65
2023-01-23T18:26:45.272Z,8.33
2023-01-23T18:32:14.846Z,9.45
2023-01-23T18:37:37.640Z,9.27
2023-01-23T18:43:17.189Z,9.90
2023-01-23T18:48:25.520Z,9.82
2023-01-23T18:53:45.452Z,9.73
2023-01-23T18:59:06.233Z,9.13
2023-01-23T19:04:15.496Z,9.00
2023-01-23T19:09:20.986Z,8.10
2023-01-23T19:15:10.625Z,8.57
2023-01-23T19:20:28.596Z,8.20
2023-01-23T19:25:30.189Z,9.48
2023-01-23T19:30:32.377Z,9.13
2023-01-23T19:35:33.733Z,8.95
2023-01-23T19:40:35.185Z,10.35
2023-01-23T19:45:36.491Z,9.35
2023-01-23T19:50:38.319Z,9.13
2023-01-23T19:55:40.195Z,8.85
2023-01-23T20:00:41.722Z,8.50
2023-01-23T20:05:43.214Z,11.02
2023-01-23T20:10:44.505Z,8.68
2023-01-23T20:15:45.906Z,8.68
2023-01-23T20:20:47.458Z,9.13
2023-01-23T20:25:57.084Z,9.05
2023-01-23T20:31:13.531Z,10.55
2023-01-23T20:36:15.798Z,9.60
2023-01-23T20:41:19.679Z,9.88
2023-01-23T20:46:21.142Z,10.15
2023-01-23T20:51:22.538Z,10.27
2023-01-23T20:56:27.503Z,9.55
2023-01-23T21:06:32.041Z,9.77
2023-01-23T21:11:33.514Z,9.90
2023-01-23T21:16:35.920Z,10.55
2023-01-23T21:21:37.762Z,10.35
2023-01-23T21:26:39.517Z,10.30
2023-01-23T21:31:41.754Z,9.23
2023-01-23T21:36:43.661Z,9.15
2023-01-23T21:41:45.085Z,10.30
2023-01-23T21:46:46.972Z,10.00
2023-01-23T21:51:48.372Z,9.50
2023-01-23T21:56:49.762Z,10.55
2023-01-23T22:01:51.444Z,9.85
2023-01-23T22:06:55.621Z,9.75
2023-01-23T22:11:57.228Z,9.90
2023-01-23T22:16:58.738Z,11.45
2023-01-23T22:22:00.151Z,9.55
2023-01-23T22:27:03.931Z,9.20
2023-01-23T22:32:05.456Z,9.95
2023-01-23T22:37:07.000Z,10.85
2023-01-23T22:42:08.506Z,10.10
2023-01-23T22:47:10.221Z,10.35
2023-01-23T22:52:11.780Z,10.15
2023-01-23T22:57:13.215Z,10.68
2023-01-23T23:02:14.547Z,10.73
2023-01-23T23:07:19.068Z,10.63
2023-01-23T23:12:20.377Z,11.00
2023-01-23T23:17:21.741Z,10.80
2023-01-23T23:22:23.274Z,11.27
2023-01-23T23:27:24.767Z,11.18
2023-01-23T23:32:26.207Z,10.70
2023-01-23T23:37:27.520Z,10.48
2023-01-23T23:42:28.819Z,10.98
2023-01-23T23:47:30.417Z,10.30
2023-01-23T23:52:34.981Z,11.82
2023-01-23T23:57:37.344Z,11.27
